By Simon Hradecky A Trigana Boeing 737-400 freighter, registration PK-YSF performing a freight flight from Jakarta Halim to Makassar (Indonesia) with 4 crew, was climbing out of Halim’s runway 24 at 10:53L (03:53Z) when the crew stopped the climb at about 3000 feet due to problems with the right hand main gear. The crew entered a hold while attempting to correct the problem and subsequently returned to Halim airport for a landing on runway 24 at about 11:28L (04:28Z) about 35 minutes after departure. Following touchdown the aircraft skidded on the runway on left main gear, nose gear and right engine pod, during the last stages of the roll out the aircraft veered right off the runway and came to a stop with all gear collapsed. There were no injuries, the aircraft sustained substantial damage.

Related NOTAMs:
A0694/21 NOTAMR A0693/21
Q) WIIF/QMRLC/IV/NBO/A/000/999/0616S10653E005
A) WIHH B) 2103200840 C) 2103201000 EST
E) RWY 06/24 CLSD DUE TO BLOCKED BY ACFT

A0693/21 NOTAMN
Q) WIIF/QMRLC/IV/NBO/A/000/999/0616S10653E005
A) WIHH B) 2103200500 C) 2103200900
E) RWY 06/24 CLSD DUE TO BLOCKED BY ACFT

Metars:
WIHH 200630Z 36003KT 4000 HZ SCT018 31/25 Q1005 NOSIG=
WIHH 200600Z 36003KT 3000 HZ SCT017 28/25 Q1006 NOSIG=
WIHH 200530Z 02006KT 3000 -RA SCT017 27/24 Q1006 NOSIG=
WIHH 200430Z 09003KT 3000 HZ FEW020 32/23 Q1007 NOSIG=
WIHH 200400Z 05008KT 3000 HZ FEW020 31/24 Q1007 NOSIG=
WIHH 200330Z 05003KT 4000 HZ FEW020 31/23 Q1008 NOSIG=
WIHH 200300Z 09003KT 4000 HZ FEW020 31/22 Q1008 NOSIG=
WIHH 200230Z 12003KT 4000 HZ FEW020 30/22 Q1008 NOSIG=
WIHH 200200Z 00000KT 4000 HZ FEW020 29/22 Q1008 NOSIG=
WIHH 200130Z 25003KT 4000 HZ FEW020 28/24 Q1008 NOSIG=
WIHH 200100Z 24003KT 4000 HZ FEW020 27/24 Q1008 NOSIG=

http://avherald.com/h?article=4e4a9764&opt=6144